createdAt,value
2022-11-09T00:00:50.248Z,3.53
2022-11-09T00:03:17.489Z,3.00
2022-11-09T00:05:54.101Z,3.53
2022-11-09T00:08:20.897Z,3.40
2022-11-09T00:10:47.644Z,3.63
2022-11-09T00:13:14.502Z,3.38
2022-11-09T00:15:41.269Z,2.63
2022-11-09T00:18:08.077Z,3.75
2022-11-09T00:20:34.952Z,3.67
2022-11-09T00:23:01.891Z,3.33
2022-11-09T00:25:28.686Z,3.45
2022-11-09T00:27:55.525Z,3.38
2022-11-09T00:30:22.295Z,3.38
2022-11-09T00:32:49.246Z,3.78
2022-11-09T00:35:16.166Z,3.35
2022-11-09T00:37:42.993Z,3.40
2022-11-09T00:40:11.194Z,3.28
2022-11-09T00:42:38.124Z,3.53
2022-11-09T00:45:05.198Z,2.60
2022-11-09T00:47:33.095Z,3.10
2022-11-09T00:49:59.955Z,3.30
2022-11-09T00:52:26.801Z,3.58
2022-11-09T00:54:53.626Z,3.53
2022-11-09T00:57:20.571Z,3.72
2022-11-09T00:59:47.428Z,3.78
2022-11-09T01:02:14.271Z,3.53
2022-11-09T01:04:41.099Z,3.42
2022-11-09T01:07:08.748Z,3.55
2022-11-09T01:09:35.661Z,2.72
2022-11-09T01:12:02.693Z,3.50
2022-11-09T01:14:29.552Z,3.35
2022-11-09T01:16:56.429Z,2.65
2022-11-09T01:19:26.034Z,3.70
2022-11-09T01:21:53.080Z,3.40
2022-11-09T01:24:20.794Z,3.22
2022-11-09T01:26:48.157Z,3.25
2022-11-09T01:29:14.910Z,2.97
2022-11-09T01:31:42.830Z,2.95
2022-11-09T01:34:09.648Z,3.20
2022-11-09T01:36:36.451Z,3.47
2022-11-09T01:39:03.274Z,2.95
2022-11-09T01:41:30.163Z,3.22
2022-11-09T01:44:15.497Z,3.33
2022-11-09T01:47:01.751Z,2.97
2022-11-09T01:49:52.743Z,2.72
2022-11-09T01:52:24.538Z,3.78
2022-11-09T01:54:58.678Z,3.03
2022-11-09T01:57:30.350Z,2.95
2022-11-09T02:00:05.343Z,3.28
2022-11-09T02:02:44.702Z,3.60
2022-11-09T02:05:17.269Z,3.00
2022-11-09T02:07:46.684Z,3.13
2022-11-09T02:10:32.842Z,3.08
2022-11-09T02:13:01.976Z,2.85
2022-11-09T02:15:29.404Z,3.03
2022-11-09T02:17:58.281Z,3.28
2022-11-09T02:20:26.030Z,3.03
2022-11-09T02:22:52.964Z,2.83
2022-11-09T02:25:21.310Z,2.60
2022-11-09T02:27:50.463Z,2.80
2022-11-09T02:30:20.963Z,3.30
2022-11-09T02:32:48.830Z,2.65
2022-11-09T02:35:15.913Z,2.35
2022-11-09T02:37:47.987Z,3.03
2022-11-09T02:40:23.225Z,2.47
2022-11-09T02:42:50.077Z,2.60
2022-11-09T02:45:17.059Z,2.88
2022-11-09T02:47:44.207Z,3.22
2022-11-09T02:50:11.170Z,3.10
2022-11-09T02:52:38.047Z,3.00
2022-11-09T02:55:05.201Z,2.33
2022-11-09T02:57:33.267Z,2.60
2022-11-09T03:00:01.399Z,2.83
2022-11-09T03:02:29.306Z,2.72
2022-11-09T03:04:56.202Z,2.90
2022-11-09T03:07:23.377Z,2.80
2022-11-09T03:09:50.383Z,2.72
2022-11-09T03:12:30.428Z,2.67
2022-11-09T03:15:08.858Z,2.95
2022-11-09T03:17:39.002Z,2.40
2022-11-09T03:20:06.614Z,2.78
2022-11-09T03:22:33.883Z,2.40
2022-11-09T03:25:01.682Z,3.00
2022-11-09T03:27:28.833Z,3.03
2022-11-09T03:29:55.751Z,2.47
2022-11-09T03:32:22.676Z,2.75
2022-11-09T03:34:51.528Z,2.78
2022-11-09T03:37:19.336Z,3.05
2022-11-09T03:39:46.249Z,2.42
2022-11-09T03:42:13.003Z,2.38
2022-11-09T03:44:40.352Z,3.15
2022-11-09T03:47:07.159Z,2.60
2022-11-09T03:49:34.084Z,2.75
2022-11-09T03:52:01.011Z,2.63
2022-11-09T03:54:27.857Z,2.92
2022-11-09T03:56:54.749Z,2.63
2022-11-09T03:59:21.663Z,2.38
2022-11-09T04:01:48.522Z,3.05
2022-11-09T04:04:15.432Z,2.80
2022-11-09T04:06:42.326Z,2.55
2022-11-09T04:09:10.489Z,2.90
2022-11-09T04:11:37.314Z,2.47
2022-11-09T04:14:05.414Z,3.15
2022-11-09T04:16:33.192Z,3.03
2022-11-09T04:19:00.212Z,2.70
2022-11-09T04:21:27.016Z,2.63
2022-11-09T04:23:53.826Z,3.25
2022-11-09T04:26:20.566Z,3.50
2022-11-09T04:28:47.382Z,3.55
2022-11-09T04:31:14.164Z,3.00
2022-11-09T04:33:40.969Z,3.28
2022-11-09T04:36:08.448Z,2.70
2022-11-09T04:38:36.503Z,3.35
2022-11-09T04:41:04.710Z,2.92
2022-11-09T04:43:31.790Z,3.03
2022-11-09T04:46:02.775Z,3.40
2022-11-09T04:48:30.976Z,2.83
2022-11-09T04:51:06.058Z,2.65
2022-11-09T04:53:34.092Z,2.95
2022-11-09T04:56:01.387Z,2.55
2022-11-09T04:58:28.371Z,2.95
2022-11-09T05:00:55.662Z,3.42
2022-11-09T05:03:22.823Z,3.10
2022-11-09T05:05:49.798Z,3.67
2022-11-09T05:08:16.653Z,2.83
2022-11-09T05:10:43.447Z,2.70
2022-11-09T05:13:12.218Z,3.20
2022-11-09T05:15:39.722Z,3.33
2022-11-09T05:18:07.527Z,3.03
2022-11-09T05:20:35.830Z,3.40
2022-11-09T05:23:21.870Z,3.60
2022-11-09T05:25:49.127Z,3.58
2022-11-09T05:28:15.880Z,3.20
2022-11-09T05:30:42.809Z,2.72
2022-11-09T05:33:09.803Z,3.58
2022-11-09T05:35:36.636Z,3.47
2022-11-09T05:38:03.475Z,3.45
2022-11-09T05:40:30.360Z,3.70
2022-11-09T05:42:57.179Z,4.22
2022-11-09T05:45:42.079Z,3.15
2022-11-09T05:48:11.525Z,4.43
2022-11-09T05:50:39.150Z,3.78
2022-11-09T05:53:12.923Z,4.28
2022-11-09T05:55:39.747Z,3.53
2022-11-09T05:58:06.661Z,3.10
2022-11-09T06:00:34.067Z,3.53
2022-11-09T06:03:06.023Z,3.53
2022-11-09T06:05:34.292Z,2.95
2022-11-09T06:08:06.715Z,4.30
2022-11-09T06:10:33.795Z,4.20
2022-11-09T06:13:00.940Z,3.63
2022-11-09T06:15:28.049Z,4.20
2022-11-09T06:17:56.107Z,3.55
2022-11-09T06:20:24.509Z,3.03
2022-11-09T06:22:58.640Z,3.88
2022-11-09T06:25:28.723Z,3.00
2022-11-09T06:27:56.309Z,3.60
2022-11-09T06:30:23.238Z,2.90
2022-11-09T06:32:51.043Z,3.63
2022-11-09T06:35:17.926Z,3.20
2022-11-09T06:37:44.677Z,3.20
2022-11-09T06:40:12.644Z,3.67
2022-11-09T06:42:39.485Z,2.90
2022-11-09T06:45:06.911Z,3.13
2022-11-09T06:47:33.699Z,3.47
2022-11-09T06:50:00.525Z,2.92
2022-11-09T06:52:27.293Z,4.47
2022-11-09T06:54:54.158Z,3.15
2022-11-09T06:57:20.906Z,4.32
2022-11-09T06:59:47.704Z,2.90
2022-11-09T07:02:17.898Z,3.30
2022-11-09T07:04:44.768Z,3.03
2022-11-09T07:07:11.831Z,3.10
2022-11-09T07:09:38.868Z,2.90
2022-11-09T07:12:05.936Z,3.55
2022-11-09T07:14:32.776Z,3.28
2022-11-09T07:16:59.583Z,3.78
2022-11-09T07:19:26.448Z,4.07
2022-11-09T07:21:53.243Z,3.38
2022-11-09T07:24:20.203Z,3.53
2022-11-09T07:26:48.799Z,3.30
2022-11-09T07:29:16.131Z,4.00
2022-11-09T07:31:42.925Z,3.33
2022-11-09T07:34:09.759Z,4.55
2022-11-09T07:36:39.335Z,3.63
2022-11-09T07:39:06.301Z,4.03
2022-11-09T07:41:34.837Z,3.55
2022-11-09T07:44:02.072Z,3.25
2022-11-09T07:46:28.894Z,3.67
2022-11-09T07:48:55.665Z,3.38
2022-11-09T07:51:22.440Z,3.30
2022-11-09T07:53:49.371Z,3.13
2022-11-09T07:56:16.221Z,3.63
2022-11-09T07:58:43.100Z,3.38
2022-11-09T08:01:11.187Z,2.85
2022-11-09T08:03:38.279Z,4.38
2022-11-09T08:06:05.334Z,2.95
2022-11-09T08:08:32.188Z,3.05
2022-11-09T08:10:58.993Z,3.55
2022-11-09T08:13:26.128Z,3.30
2022-11-09T08:15:53.026Z,3.72
2022-11-09T08:18:21.611Z,3.45
2022-11-09T08:20:49.462Z,3.78
2022-11-09T08:23:18.400Z,3.85
2022-11-09T08:25:45.195Z,4.15
2022-11-09T08:28:15.082Z,3.78
2022-11-09T08:30:44.433Z,4.20
2022-11-09T08:33:12.202Z,3.53
2022-11-09T08:35:39.203Z,4.30
2022-11-09T08:38:06.333Z,3.30
2022-11-09T08:40:34.073Z,3.05
2022-11-09T08:43:03.244Z,3.60
2022-11-09T08:45:32.578Z,3.92
2022-11-09T08:48:00.836Z,3.90
2022-11-09T08:50:29.591Z,4.40
2022-11-09T08:52:56.544Z,3.22
2022-11-09T08:55:23.517Z,3.78
2022-11-09T08:57:54.290Z,4.00
2022-11-09T09:00:21.172Z,3.95
2022-11-09T09:02:48.659Z,3.50
2022-11-09T09:05:16.581Z,3.55
2022-11-09T09:07:43.376Z,4.28
2022-11-09T09:10:10.954Z,3.30
2022-11-09T09:12:38.093Z,3.60
2022-11-09T09:15:05.575Z,3.58
2022-11-09T09:17:33.213Z,4.03
2022-11-09T09:20:00.035Z,3.47
2022-11-09T09:22:26.962Z,3.60
2022-11-09T09:24:53.752Z,4.15
2022-11-09T09:27:20.569Z,3.65
2022-11-09T09:29:47.433Z,4.10
2022-11-09T09:32:14.260Z,4.38
2022-11-09T09:34:41.035Z,4.30
2022-11-09T09:37:07.857Z,4.50
2022-11-09T09:39:34.699Z,4.18
2022-11-09T09:42:06.400Z,0.93
2022-11-09T09:44:54.905Z,1.92
2022-11-09T09:47:33.589Z,1.40
2022-11-09T09:50:25.750Z,0.70
2022-11-09T09:53:23.688Z,1.17
2022-11-09T09:55:57.665Z,1.30
2022-11-09T09:58:30.534Z,1.70
2022-11-09T10:01:16.141Z,2.88
2022-11-09T10:03:43.223Z,3.33
2022-11-09T10:06:40.043Z,3.90
2022-11-09T10:09:23.609Z,4.60
2022-11-09T10:12:01.306Z,3.53
2022-11-09T10:14:43.471Z,3.45
2022-11-09T10:17:32.283Z,3.90
2022-11-09T10:20:19.322Z,4.00
2022-11-09T10:23:04.760Z,3.95
2022-11-09T10:26:02.167Z,4.57
2022-11-09T10:28:34.289Z,3.53
2022-11-09T10:31:17.753Z,3.38
2022-11-09T10:33:49.688Z,4.15
2022-11-09T10:36:24.938Z,3.53
2022-11-09T10:38:56.418Z,3.50
2022-11-09T10:41:47.060Z,4.00
2022-11-09T10:44:32.465Z,2.78
2022-11-09T10:47:18.624Z,3.00
2022-11-09T10:50:11.860Z,2.50
2022-11-09T10:53:10.005Z,2.75
2022-11-09T10:56:20.797Z,2.63
2022-11-09T10:59:32.406Z,2.17
2022-11-09T11:02:26.787Z,2.22
2022-11-09T11:05:19.445Z,2.10
2022-11-09T11:08:29.030Z,2.17
2022-11-09T11:11:33.093Z,1.95
2022-11-09T11:14:34.932Z,2.83
2022-11-09T11:17:21.626Z,1.90
2022-11-09T11:20:27.668Z,1.80
2022-11-09T11:23:26.103Z,1.98
2022-11-09T11:26:25.284Z,2.25
2022-11-09T11:29:34.033Z,2.17
2022-11-09T11:32:20.381Z,2.05
2022-11-09T11:35:22.979Z,1.80
2022-11-09T11:38:27.458Z,2.42
2022-11-09T11:41:21.846Z,2.17
2022-11-09T11:44:19.434Z,2.70
2022-11-09T11:47:36.126Z,2.20
2022-11-09T11:50:27.560Z,2.90
2022-11-09T11:53:25.351Z,1.77
2022-11-09T11:56:36.734Z,2.35
2022-11-09T11:59:44.468Z,2.47
2022-11-09T12:02:48.596Z,2.05
2022-11-09T12:05:56.183Z,2.03
2022-11-09T12:09:00.260Z,2.15
2022-11-09T12:12:00.132Z,2.17
2022-11-09T12:15:04.184Z,2.03
2022-11-09T12:18:00.334Z,2.03
2022-11-09T12:20:45.849Z,1.92
2022-11-09T12:23:40.503Z,2.22
2022-11-09T12:27:04.748Z,1.77
2022-11-09T12:30:09.590Z,2.65
2022-11-09T12:33:02.159Z,1.73
2022-11-09T12:35:58.137Z,2.42
2022-11-09T12:38:46.574Z,1.77
2022-11-09T12:41:36.429Z,1.95
2022-11-09T12:44:29.243Z,2.05
2022-11-09T12:47:20.489Z,2.40
2022-11-09T12:50:06.357Z,2.90
2022-11-09T12:56:15.597Z,2.27
2022-11-09T12:59:29.165Z,2.13
2022-11-09T13:02:33.545Z,2.17
2022-11-09T13:05:38.767Z,2.20
2022-11-09T13:08:29.194Z,2.30
2022-11-09T13:11:17.587Z,2.78
2022-11-09T13:14:21.934Z,2.22
2022-11-09T13:17:28.577Z,2.55
2022-11-09T13:20:56.861Z,2.25
2022-11-09T13:26:49.281Z,2.65
2022-11-09T13:29:40.758Z,1.50
2022-11-09T13:32:35.487Z,2.22
2022-11-09T13:35:42.344Z,2.90
2022-11-09T13:38:30.248Z,2.22
2022-11-09T13:41:31.898Z,2.45
2022-11-09T13:44:27.519Z,2.60
2022-11-09T13:47:36.485Z,2.25
2022-11-09T13:50:27.956Z,2.53
2022-11-09T13:53:31.784Z,2.47
2022-11-09T13:56:39.905Z,2.17
2022-11-09T13:59:39.143Z,2.20
2022-11-09T14:02:26.692Z,2.85
2022-11-09T14:05:30.369Z,2.47
2022-11-09T14:08:33.042Z,2.85
2022-11-09T14:11:27.419Z,2.05
2022-11-09T14:14:27.053Z,2.60
2022-11-09T14:17:20.086Z,2.42
2022-11-09T14:20:29.958Z,2.22
2022-11-09T14:23:18.133Z,3.08
2022-11-09T14:26:17.105Z,2.58
2022-11-09T14:29:20.214Z,2.42
2022-11-09T14:32:25.672Z,2.42
2022-11-09T14:35:19.732Z,2.70
2022-11-09T14:38:24.674Z,2.33
2022-11-09T14:41:22.726Z,3.38
2022-11-09T14:44:16.981Z,2.63
2022-11-09T14:47:03.369Z,2.97
2022-11-09T14:49:49.490Z,2.30
2022-11-09T14:52:35.368Z,2.50
2022-11-09T14:58:13.830Z,2.85
2022-11-09T15:01:20.250Z,2.60
2022-11-09T15:04:11.019Z,3.22
2022-11-09T15:07:01.101Z,2.60
2022-11-09T15:09:49.477Z,2.45
2022-11-09T15:12:39.136Z,2.65
2022-11-09T15:15:29.835Z,2.67
2022-11-09T15:18:23.013Z,2.97
2022-11-09T15:21:13.482Z,2.30
2022-11-09T15:24:08.224Z,2.30
2022-11-09T15:26:54.577Z,2.53
2022-11-09T15:29:42.545Z,2.20
2022-11-09T15:32:32.672Z,2.15
2022-11-09T15:35:18.744Z,2.35
2022-11-09T15:40:49.691Z,2.80
2022-11-09T15:43:35.240Z,2.00
2022-11-09T15:46:32.332Z,2.08
2022-11-09T15:49:22.706Z,2.30
2022-11-09T15:52:11.384Z,2.42
2022-11-09T15:54:57.334Z,2.30
2022-11-09T15:57:44.071Z,2.13
2022-11-09T16:00:29.285Z,2.92
2022-11-09T16:03:17.353Z,2.33
2022-11-09T16:06:02.907Z,2.80
2022-11-09T16:08:49.905Z,2.88
2022-11-09T16:11:35.411Z,2.47
2022-11-09T16:14:22.122Z,3.70
2022-11-09T16:17:07.828Z,2.40
2022-11-09T16:19:53.261Z,2.60
2022-11-09T16:22:38.688Z,3.13
2022-11-09T16:25:24.264Z,3.13
2022-11-09T16:28:10.435Z,2.42
2022-11-09T16:33:41.031Z,2.83
2022-11-09T16:36:26.472Z,3.58
2022-11-09T16:39:16.942Z,2.83
2022-11-09T16:42:07.724Z,3.22
2022-11-09T16:44:57.163Z,3.47
2022-11-09T16:47:56.912Z,3.10
2022-11-09T16:50:42.351Z,3.10
2022-11-09T16:53:28.556Z,3.03
2022-11-09T16:59:00.136Z,3.58
2022-11-09T17:01:58.869Z,2.45
2022-11-09T17:04:44.209Z,3.83
2022-11-09T17:07:29.880Z,3.33
2022-11-09T17:10:15.449Z,2.80
2022-11-09T17:13:00.978Z,2.92
2022-11-09T17:15:48.826Z,2.72
2022-11-09T17:18:34.944Z,3.42
2022-11-09T17:24:06.560Z,3.33
2022-11-09T17:26:52.301Z,3.28
2022-11-09T17:29:38.409Z,3.25
2022-11-09T17:35:12.692Z,3.15
2022-11-09T17:37:58.139Z,3.25
2022-11-09T17:40:43.547Z,2.97
2022-11-09T17:43:33.832Z,2.97
2022-11-09T17:46:21.609Z,3.25
2022-11-09T17:49:09.957Z,3.25
2022-11-09T17:51:55.926Z,3.40
2022-11-09T17:54:41.462Z,2.85
2022-11-09T17:57:26.868Z,3.05
2022-11-09T18:00:13.123Z,3.10
2022-11-09T18:02:58.530Z,3.67
2022-11-09T18:05:45.006Z,2.95
2022-11-09T18:08:30.635Z,3.42
2022-11-09T18:11:17.504Z,3.47
2022-11-09T18:14:03.457Z,3.55
2022-11-09T18:16:48.817Z,3.55
2022-11-09T18:19:34.232Z,3.67
2022-11-09T18:22:19.877Z,3.95
2022-11-09T18:25:05.740Z,3.45
2022-11-09T18:27:52.386Z,3.97
2022-11-09T18:30:41.603Z,3.50
2022-11-09T18:33:28.105Z,4.13
2022-11-09T18:36:18.519Z,3.97
2022-11-09T18:39:04.806Z,2.97
2022-11-09T18:41:50.539Z,3.88
2022-11-09T18:44:35.745Z,2.80
2022-11-09T18:47:21.158Z,3.50
2022-11-09T18:50:07.017Z,3.88
2022-11-09T18:52:52.384Z,3.55
2022-11-09T18:55:37.911Z,4.40
2022-11-09T18:58:23.671Z,3.25
2022-11-09T19:01:09.513Z,4.10
2022-11-09T19:03:59.390Z,3.80
2022-11-09T19:06:46.393Z,4.55
2022-11-09T19:09:35.508Z,4.22
2022-11-09T19:12:21.413Z,3.25
2022-11-09T19:15:07.075Z,4.60
2022-11-09T19:20:38.912Z,4.90
2022-11-09T19:23:28.480Z,4.63
2022-11-09T19:26:18.624Z,4.07
2022-11-09T19:29:04.114Z,4.03
2022-11-09T19:31:49.439Z,4.55
2022-11-09T19:34:34.606Z,4.25
2022-11-09T19:37:20.178Z,5.28
2022-11-09T19:40:06.564Z,5.32
2022-11-09T19:42:51.935Z,5.25
2022-11-09T19:45:43.488Z,4.82
2022-11-09T19:48:28.911Z,4.00
2022-11-09T19:51:15.941Z,4.40
2022-11-09T19:54:02.872Z,5.35
2022-11-09T19:56:48.292Z,5.30
2022-11-09T19:59:33.391Z,5.10
2022-11-09T20:02:19.265Z,5.25
2022-11-09T20:05:05.244Z,4.75
2022-11-09T20:07:50.765Z,4.15
2022-11-09T20:10:37.731Z,4.53
2022-11-09T20:13:24.688Z,5.05
2022-11-09T20:16:10.559Z,5.40
2022-11-09T20:21:42.006Z,4.53
2022-11-09T20:24:27.640Z,4.75
2022-11-09T20:27:12.885Z,4.47
2022-11-09T20:29:58.447Z,4.50
2022-11-09T20:32:43.940Z,4.45
2022-11-09T20:35:29.613Z,5.22
2022-11-09T20:38:15.007Z,5.50
2022-11-09T20:41:02.585Z,4.95
2022-11-09T20:43:48.096Z,4.50
2022-11-09T20:46:36.602Z,4.78
2022-11-09T20:49:22.833Z,5.10
2022-11-09T20:52:08.016Z,5.57
2022-11-09T20:54:53.530Z,4.85
2022-11-09T20:57:38.978Z,5.15
2022-11-09T21:00:24.848Z,4.60
2022-11-09T21:03:10.645Z,4.50
2022-11-09T21:05:59.336Z,4.50
2022-11-09T21:08:50.084Z,4.80
2022-11-09T21:11:36.031Z,5.65
2022-11-09T21:14:21.504Z,5.15
2022-11-09T21:17:06.775Z,4.47
2022-11-09T21:19:52.249Z,4.05
2022-11-09T21:23:03.674Z,4.68
2022-11-09T21:26:07.758Z,5.78
2022-11-09T21:29:11.526Z,5.07
2022-11-09T21:31:56.917Z,5.15
2022-11-09T21:34:42.401Z,4.90
2022-11-09T21:37:28.140Z,4.65
2022-11-09T21:40:13.456Z,5.18
2022-11-09T21:42:59.292Z,4.78
2022-11-09T21:45:49.757Z,4.90
2022-11-09T21:48:34.990Z,5.78
2022-11-09T21:51:20.771Z,6.63
2022-11-09T21:54:07.859Z,6.25
2022-11-09T21:56:53.521Z,5.90
2022-11-09T21:59:39.017Z,6.40
2022-11-09T22:02:24.295Z,6.32
2022-11-09T22:05:10.402Z,6.10
2022-11-09T22:07:55.535Z,5.47
2022-11-09T22:10:41.233Z,6.43
2022-11-09T22:13:45.107Z,5.80
2022-11-09T22:16:49.290Z,6.03
2022-11-09T22:19:53.424Z,4.55
2022-11-09T22:22:38.867Z,5.90
2022-11-09T22:25:24.419Z,5.05
2022-11-09T22:28:10.010Z,5.45
2022-11-09T22:30:55.387Z,6.38
2022-11-09T22:33:40.994Z,5.55
2022-11-09T22:36:26.070Z,5.57
2022-11-09T22:39:11.453Z,5.85
2022-11-09T22:41:56.896Z,5.78
2022-11-09T22:44:42.543Z,5.45
2022-11-09T22:47:27.938Z,5.65
2022-11-09T22:50:13.614Z,4.55
2022-11-09T22:53:03.503Z,5.15
2022-11-09T22:55:57.326Z,5.63
2022-11-09T22:58:45.078Z,5.30
2022-11-09T23:01:30.766Z,5.28
2022-11-09T23:04:16.472Z,5.63
2022-11-09T23:07:01.764Z,5.88
2022-11-09T23:09:47.257Z,4.32
2022-11-09T23:12:33.744Z,5.28
2022-11-09T23:15:19.157Z,5.53
2022-11-09T23:18:23.240Z,4.85
2022-11-09T23:21:09.477Z,5.63
2022-11-09T23:23:56.900Z,6.03
2022-11-09T23:26:42.137Z,5.75
2022-11-09T23:29:27.853Z,5.38
2022-11-09T23:32:12.940Z,4.68
2022-11-09T23:34:58.660Z,4.72
2022-11-09T23:37:44.132Z,5.97
2022-11-09T23:40:31.437Z,4.28
2022-11-09T23:43:17.047Z,4.75
2022-11-09T23:46:04.749Z,4.95
2022-11-09T23:48:50.317Z,4.90
2022-11-09T23:51:35.651Z,5.60
2022-11-09T23:54:21.105Z,4.63
2022-11-09T23:57:15.642Z,4.45
